Terminal Aerodrome Forecast
Issued by NWS

Home | Current Version | Previous Version | Text Only | Print | Product List | Glossary On
Versions: 1 2 3 4 5 6 7 8 9 10 11 12 13 14 15 16 17
837
FTUS41 KPBZ 242320
TAFFKL
TAF
KFKL 242320Z 2500/2524 32010KT 5SM -DZ BR OVC005
      TEMPO 2500/2504 1SM -DZ BR
     FM251200 19008KT P6SM OVC015
     FM252200 18008KT 6SM -RA OVC015
      AMD NOT SKED=

USA.gov is the U.S. government's official web portal to all federal, state and local government web resources and services.